createdAt,value
2023-03-07T00:02:29.009Z,97503.52
2023-03-07T00:05:45.613Z,97496.80
2023-03-07T00:09:04.449Z,97496.95
2023-03-07T00:12:23.048Z,97494.35
2023-03-07T00:15:39.291Z,97495.58
2023-03-07T00:18:55.676Z,97494.08
2023-03-07T00:22:14.158Z,97493.16
2023-03-07T00:25:30.246Z,97496.45
2023-03-07T00:28:46.898Z,97486.72
2023-03-07T00:32:03.153Z,97486.42
2023-03-07T00:35:19.847Z,97483.98
2023-03-07T00:38:37.599Z,97484.80
2023-03-07T00:41:55.156Z,97476.48
2023-03-07T00:45:14.303Z,97483.19
2023-03-07T00:48:31.169Z,97468.52
2023-03-07T00:51:47.380Z,97459.59
2023-03-07T00:55:03.852Z,97474.27
2023-03-07T00:58:20.052Z,97465.38
2023-03-07T01:01:38.042Z,97463.88
2023-03-07T01:04:54.620Z,97459.87
2023-03-07T01:08:10.829Z,97455.19
2023-03-07T01:11:27.494Z,97457.53
2023-03-07T01:14:43.929Z,97456.99
2023-03-07T01:18:01.097Z,97446.78
2023-03-07T01:21:26.395Z,97458.30
2023-03-07T01:24:43.128Z,97451.98
2023-03-07T01:28:01.575Z,97446.63
2023-03-07T01:31:18.742Z,97447.32
2023-03-07T01:34:35.273Z,97442.38
2023-03-07T01:37:52.271Z,97440.05
2023-03-07T01:41:09.197Z,97434.27
2023-03-07T01:44:29.464Z,97429.48
2023-03-07T01:47:46.295Z,97426.05
2023-03-07T01:51:03.234Z,97425.47
2023-03-07T01:54:23.421Z,97413.67
2023-03-07T01:57:44.303Z,97409.39
2023-03-07T02:01:01.272Z,97419.23
2023-03-07T02:04:23.319Z,97416.17
2023-03-07T02:07:44.894Z,97411.71
2023-03-07T02:11:01.878Z,97418.97
2023-03-07T02:14:18.416Z,97415.77
2023-03-07T02:17:34.669Z,97418.22
2023-03-07T02:20:56.774Z,97412.80
2023-03-07T02:24:20.864Z,97417.54
2023-03-07T02:27:40.151Z,97417.94
2023-03-07T02:31:09.786Z,97420.98
2023-03-07T02:34:31.639Z,97425.95
2023-03-07T02:38:03.657Z,97421.64
2023-03-07T02:41:24.488Z,97423.72
2023-03-07T02:44:41.138Z,97424.30
2023-03-07T02:47:58.859Z,97415.42
2023-03-07T02:51:17.401Z,97418.12
2023-03-07T02:54:34.364Z,97420.61
2023-03-07T02:57:50.652Z,97420.34
2023-03-07T03:01:06.931Z,97415.81
2023-03-07T03:04:23.343Z,97416.35
2023-03-07T03:07:39.766Z,97411.95
2023-03-07T03:10:59.497Z,97404.56
2023-03-07T03:14:16.158Z,97399.13
2023-03-07T03:17:33.091Z,97412.56
2023-03-07T03:20:50.576Z,97410.08
2023-03-07T03:24:12.358Z,97413.48
2023-03-07T03:27:29.148Z,97416.02
2023-03-07T03:30:46.756Z,97420.69
2023-03-07T03:34:05.897Z,97417.99
2023-03-07T03:37:22.736Z,97417.96
2023-03-07T03:40:39.205Z,97410.72
2023-03-07T03:43:58.145Z,97409.47
2023-03-07T03:47:15.574Z,97412.52
2023-03-07T03:50:31.902Z,97420.33
2023-03-07T03:53:49.605Z,97417.27
2023-03-07T03:57:06.149Z,97413.86
2023-03-07T04:00:24.718Z,97418.38
2023-03-07T04:03:43.348Z,97421.44
2023-03-07T04:06:59.550Z,97423.32
2023-03-07T04:10:18.217Z,97422.48
2023-03-07T04:13:35.182Z,97420.42
2023-03-07T04:16:52.553Z,97412.03
2023-03-07T04:20:11.585Z,97415.47
2023-03-07T04:23:29.769Z,97418.34
2023-03-07T04:26:46.062Z,97420.95
2023-03-07T04:30:03.698Z,97415.17
2023-03-07T04:33:20.814Z,97419.42
2023-03-07T04:36:38.048Z,97417.20
2023-03-07T04:39:54.303Z,97406.05
2023-03-07T04:43:12.701Z,97410.03
2023-03-07T04:46:29.253Z,97403.78
2023-03-07T04:49:45.971Z,97408.92
2023-03-07T04:53:02.228Z,97412.42
2023-03-07T04:56:22.232Z,97411.37
2023-03-07T04:59:40.295Z,97409.16
2023-03-07T05:02:57.598Z,97414.28
2023-03-07T05:06:18.629Z,97407.16
2023-03-07T05:09:39.100Z,97411.16
2023-03-07T05:12:55.374Z,97418.88
2023-03-07T05:16:12.973Z,97417.94
2023-03-07T05:19:31.361Z,97416.67
2023-03-07T05:22:49.118Z,97415.70
2023-03-07T05:26:05.534Z,97419.98
2023-03-07T05:29:21.678Z,97418.84
2023-03-07T05:32:37.888Z,97413.97
2023-03-07T05:35:56.368Z,97413.16
2023-03-07T05:39:12.668Z,97417.25
2023-03-07T05:42:28.981Z,97418.41
2023-03-07T05:45:45.092Z,97417.13
2023-03-07T05:49:02.244Z,97414.19
2023-03-07T05:52:18.781Z,97418.14
2023-03-07T05:55:35.751Z,97419.45
2023-03-07T05:58:52.109Z,97413.59
2023-03-07T06:02:08.228Z,97417.52
2023-03-07T06:05:25.500Z,97410.85
2023-03-07T06:08:41.806Z,97410.98
2023-03-07T06:11:57.962Z,97425.39
2023-03-07T06:15:16.179Z,97417.39
2023-03-07T06:18:34.044Z,97417.55
2023-03-07T06:21:51.456Z,97416.28
2023-03-07T06:25:08.011Z,97418.56
2023-03-07T06:28:24.252Z,97416.27
2023-03-07T06:31:40.430Z,97419.72
2023-03-07T06:34:57.133Z,97421.70
2023-03-07T06:38:14.507Z,97423.36
2023-03-07T06:41:32.641Z,97426.45
2023-03-07T06:44:51.159Z,97429.41
2023-03-07T06:48:07.879Z,97432.69
2023-03-07T06:51:26.067Z,97435.77
2023-03-07T06:54:44.130Z,97437.06
2023-03-07T06:58:02.785Z,97441.14
2023-03-07T07:01:25.673Z,97434.52
2023-03-07T07:04:42.543Z,97433.28
2023-03-07T07:07:58.676Z,97440.86
2023-03-07T07:11:15.373Z,97434.20
2023-03-07T07:14:32.218Z,97434.78
2023-03-07T07:17:49.033Z,97432.47
2023-03-07T07:21:06.357Z,97430.53
2023-03-07T07:24:25.069Z,97437.92
2023-03-07T07:27:42.829Z,97443.40
2023-03-07T07:30:59.784Z,97437.77
2023-03-07T07:34:19.039Z,97438.25
2023-03-07T07:37:36.477Z,97438.01
2023-03-07T07:40:54.088Z,97437.14
2023-03-07T07:44:10.769Z,97431.48
2023-03-07T07:47:31.479Z,97436.04
2023-03-07T07:50:49.206Z,97436.52
2023-03-07T07:54:05.780Z,97434.17
2023-03-07T07:57:22.826Z,97435.30
2023-03-07T08:00:40.361Z,97437.03
2023-03-07T08:04:00.283Z,97438.72
2023-03-07T08:07:19.646Z,97437.56
2023-03-07T08:10:36.459Z,97439.33
2023-03-07T08:13:53.298Z,97433.43
2023-03-07T08:17:09.949Z,97426.27
2023-03-07T08:20:27.989Z,97415.89
2023-03-07T08:23:47.296Z,97421.27
2023-03-07T08:27:09.749Z,97420.52
2023-03-07T08:30:31.591Z,97415.80
2023-03-07T08:33:49.594Z,97411.62
2023-03-07T08:37:10.963Z,97420.32
2023-03-07T08:40:43.605Z,97415.44
2023-03-07T08:44:10.955Z,97415.64
2023-03-07T08:47:29.281Z,97396.31
2023-03-07T08:50:47.545Z,97404.27
2023-03-07T08:54:05.762Z,97398.76
2023-03-07T08:57:22.310Z,97409.03
2023-03-07T09:00:41.886Z,97407.41
2023-03-07T09:03:58.494Z,97398.89
2023-03-07T09:07:15.130Z,97411.06
2023-03-07T09:10:33.361Z,97405.29
2023-03-07T09:13:52.720Z,97403.02
2023-03-07T09:17:12.665Z,97409.53
2023-03-07T09:20:30.282Z,97408.59
2023-03-07T09:23:46.653Z,97404.02
2023-03-07T09:27:04.227Z,97399.83
2023-03-07T09:30:23.518Z,97384.29
2023-03-07T09:33:38.412Z,97399.44
2023-03-07T09:36:54.395Z,97384.02
2023-03-07T09:40:12.705Z,97389.78
2023-03-07T09:43:32.729Z,97384.05
2023-03-07T09:47:00.949Z,97377.72
2023-03-07T09:50:25.794Z,97376.82
2023-03-07T09:53:47.988Z,97376.12
2023-03-07T09:57:06.891Z,97376.75
2023-03-07T10:00:41.268Z,97371.34
2023-03-07T10:04:08.249Z,97375.71
2023-03-07T10:07:28.482Z,97374.02
2023-03-07T10:10:49.900Z,97371.31
2023-03-07T10:14:24.095Z,97361.38
2023-03-07T10:17:57.275Z,97356.77
2023-03-07T10:21:20.487Z,97368.66
2023-03-07T10:24:56.663Z,97357.80
2023-03-07T10:28:22.629Z,97360.03
2023-03-07T10:31:44.206Z,97351.89
2023-03-07T10:35:06.413Z,97344.75
2023-03-07T10:38:32.865Z,97341.48
2023-03-07T10:41:50.140Z,97339.56
2023-03-07T10:45:06.721Z,97333.98
2023-03-07T10:48:28.751Z,97315.78
2023-03-07T10:51:59.349Z,97315.58
2023-03-07T10:55:41.554Z,97316.83
2023-03-07T10:59:16.556Z,97303.94
2023-03-07T11:02:45.386Z,97305.98
2023-03-07T11:06:07.678Z,97305.38
2023-03-07T11:09:35.048Z,97295.84
2023-03-07T11:12:55.731Z,97304.94
2023-03-07T11:16:28.013Z,97296.52
2023-03-07T11:19:51.365Z,97294.44
2023-03-07T11:23:27.908Z,97288.31
2023-03-07T11:26:49.959Z,97286.42
2023-03-07T11:30:30.508Z,97276.94
2023-03-07T11:34:00.184Z,97278.27
2023-03-07T11:37:39.556Z,97269.66
2023-03-07T11:41:02.309Z,97270.92
2023-03-07T11:44:41.140Z,97262.76
2023-03-07T11:48:03.025Z,97266.42
2023-03-07T11:51:32.481Z,97249.02
2023-03-07T11:54:54.773Z,97245.20
2023-03-07T11:58:32.901Z,97242.79
2023-03-07T12:01:56.188Z,97243.75
2023-03-07T12:05:29.196Z,97241.66
2023-03-07T12:09:04.544Z,97246.86
2023-03-07T12:12:39.087Z,97244.20
2023-03-07T12:16:01.933Z,97246.77
2023-03-07T12:19:49.453Z,97243.30
2023-03-07T12:23:16.254Z,97236.87
2023-03-07T12:26:38.725Z,97236.63
2023-03-07T12:30:00.513Z,97236.76
2023-03-07T12:33:21.972Z,97235.95
2023-03-07T12:36:46.778Z,97235.23
2023-03-07T12:40:06.383Z,97238.33
2023-03-07T12:43:26.610Z,97232.83
2023-03-07T12:46:50.176Z,97227.14
2023-03-07T12:50:14.283Z,97223.36
2023-03-07T12:53:36.541Z,97229.09
2023-03-07T12:57:00.770Z,97234.98
2023-03-07T13:00:23.757Z,97233.76
2023-03-07T13:07:26.713Z,97228.40
2023-03-07T13:10:46.120Z,97225.42
2023-03-07T13:14:05.816Z,97223.99
2023-03-07T13:17:20.664Z,97215.66
2023-03-07T13:21:10.380Z,97214.63
2023-03-07T13:24:46.210Z,97205.58
2023-03-07T13:28:04.076Z,97204.23
2023-03-07T13:31:51.882Z,97199.18
2023-03-07T13:35:08.119Z,97191.86
2023-03-07T13:38:49.221Z,97193.69
2023-03-07T13:42:05.418Z,97186.61
2023-03-07T13:45:57.674Z,97190.52
2023-03-07T13:49:14.926Z,97187.86
2023-03-07T13:52:54.459Z,97178.13
2023-03-07T13:56:12.067Z,97185.02
2023-03-07T13:59:30.812Z,97176.06
2023-03-07T14:02:48.739Z,97179.89
2023-03-07T14:06:08.521Z,97178.66
2023-03-07T14:09:28.319Z,97177.81
2023-03-07T14:12:52.511Z,97172.77
2023-03-07T14:16:26.003Z,97163.44
2023-03-07T14:19:57.181Z,97158.02
2023-03-07T14:23:23.265Z,97149.06
2023-03-07T14:26:43.305Z,97152.49
2023-03-07T14:30:04.446Z,97148.26
2023-03-07T14:33:27.463Z,97154.68
2023-03-07T14:36:45.800Z,97155.11
2023-03-07T14:40:25.576Z,97148.44
2023-03-07T14:43:57.238Z,97150.91
2023-03-07T14:47:35.424Z,97151.11
2023-03-07T14:50:53.720Z,97152.49
2023-03-07T14:54:19.805Z,97138.45
2023-03-07T14:57:41.839Z,97140.29
2023-03-07T15:01:15.242Z,97140.31
2023-03-07T15:04:39.412Z,97128.34
2023-03-07T15:07:56.553Z,97130.55
2023-03-07T15:11:17.906Z,97128.92
2023-03-07T15:14:45.166Z,97130.55
2023-03-07T15:18:05.975Z,97125.06
2023-03-07T15:21:28.798Z,97132.16
2023-03-07T15:24:49.209Z,97124.27
2023-03-07T15:28:11.648Z,97117.80
2023-03-07T15:31:32.802Z,97120.65
2023-03-07T15:35:03.874Z,97120.02
2023-03-07T15:38:31.428Z,97121.27
2023-03-07T15:41:49.102Z,97117.23
2023-03-07T15:45:09.405Z,97119.23
2023-03-07T15:48:33.924Z,97118.86
2023-03-07T15:51:57.032Z,97115.58
2023-03-07T15:55:23.016Z,97110.11
2023-03-07T15:58:42.283Z,97115.75
2023-03-07T16:02:04.590Z,97110.05
2023-03-07T16:05:46.130Z,97104.98
2023-03-07T16:09:05.813Z,97118.49
2023-03-07T16:12:57.638Z,97114.64
2023-03-07T16:16:23.451Z,97117.44
2023-03-07T16:19:39.812Z,97116.41
2023-03-07T16:22:56.289Z,97115.78
2023-03-07T16:26:17.020Z,97108.48
2023-03-07T16:29:33.557Z,97103.39
2023-03-07T16:32:50.797Z,97102.53
2023-03-07T16:36:06.995Z,97097.67
2023-03-07T16:39:23.712Z,97098.44
2023-03-07T16:42:41.913Z,97099.05
2023-03-07T16:46:01.172Z,97097.61
2023-03-07T16:49:23.844Z,97104.23
2023-03-07T16:52:39.944Z,97107.47
2023-03-07T16:55:56.965Z,97101.58
2023-03-07T16:59:15.261Z,97104.00
2023-03-07T17:02:32.122Z,97105.41
2023-03-07T17:05:48.689Z,97112.42
2023-03-07T17:09:05.484Z,97107.16
2023-03-07T17:12:23.013Z,97111.63
2023-03-07T17:15:39.276Z,97114.19
2023-03-07T17:18:58.497Z,97109.92
2023-03-07T17:22:16.101Z,97119.09
2023-03-07T17:25:33.592Z,97119.09
2023-03-07T17:28:50.333Z,97113.90
2023-03-07T17:32:06.717Z,97117.91
2023-03-07T17:35:26.307Z,97110.42
2023-03-07T17:38:48.044Z,97099.33
2023-03-07T17:42:04.990Z,97100.82
2023-03-07T17:45:22.638Z,97103.20
2023-03-07T17:48:39.028Z,97100.38
2023-03-07T17:51:55.064Z,97101.77
2023-03-07T17:55:15.687Z,97099.22
2023-03-07T17:58:31.787Z,97096.20
2023-03-07T18:01:48.190Z,97101.41
2023-03-07T18:05:04.887Z,97095.07
2023-03-07T18:08:22.008Z,97085.80
2023-03-07T18:11:41.166Z,97087.88
2023-03-07T18:15:00.846Z,97076.37
2023-03-07T18:18:17.801Z,97071.86
2023-03-07T18:21:37.171Z,97080.19
2023-03-07T18:24:55.969Z,97081.38
2023-03-07T18:28:12.659Z,97077.36
2023-03-07T18:31:33.488Z,97082.17
2023-03-07T18:34:52.330Z,97071.31
2023-03-07T18:38:10.319Z,97077.36
2023-03-07T18:41:29.560Z,97071.67
2023-03-07T18:44:48.761Z,97068.68
2023-03-07T18:48:06.654Z,97064.86
2023-03-07T18:51:27.767Z,97065.05
2023-03-07T18:54:46.072Z,97059.22
2023-03-07T18:58:04.356Z,97062.28
2023-03-07T19:01:25.213Z,97062.48
2023-03-07T19:04:44.320Z,97063.03
2023-03-07T19:08:01.845Z,97062.23
2023-03-07T19:11:22.681Z,97064.23
2023-03-07T19:14:39.340Z,97063.03
2023-03-07T19:17:58.101Z,97051.09
2023-03-07T19:21:20.142Z,97053.95
2023-03-07T19:24:37.772Z,97054.20
2023-03-07T19:27:54.840Z,97048.34
2023-03-07T19:31:19.753Z,97043.69
2023-03-07T19:34:36.709Z,97048.94
2023-03-07T19:37:53.958Z,97050.21
2023-03-07T19:41:12.087Z,97045.75
2023-03-07T19:44:28.381Z,97038.50
2023-03-07T19:47:44.787Z,97043.95
2023-03-07T19:51:02.788Z,97043.36
2023-03-07T19:54:24.613Z,97037.11
2023-03-07T19:57:43.370Z,97037.30
2023-03-07T20:01:02.235Z,97035.67
2023-03-07T20:04:20.834Z,97037.94
2023-03-07T20:07:37.780Z,97035.04
2023-03-07T20:11:04.059Z,97036.91
2023-03-07T20:14:15.842Z,97026.59
2023-03-07T20:17:32.196Z,97035.31
2023-03-07T20:20:51.129Z,97032.92
2023-03-07T20:24:08.304Z,97037.34
2023-03-07T20:27:26.115Z,97030.85
2023-03-07T20:30:42.997Z,97025.20
2023-03-07T20:33:59.698Z,97018.14
2023-03-07T20:37:16.460Z,97026.83
2023-03-07T20:40:34.676Z,97023.59
2023-03-07T20:43:51.598Z,97015.08
2023-03-07T20:47:08.205Z,97023.77
2023-03-07T20:50:25.367Z,97012.41
2023-03-07T20:53:42.120Z,97011.39
2023-03-07T20:56:58.694Z,97009.52
2023-03-07T21:00:19.767Z,97010.95
2023-03-07T21:03:37.261Z,97008.92
2023-03-07T21:06:56.362Z,97007.48
2023-03-07T21:10:13.518Z,97008.52
2023-03-07T21:13:29.726Z,97005.89
2023-03-07T21:16:46.281Z,97006.53
2023-03-07T21:20:05.567Z,97009.59
2023-03-07T21:23:22.201Z,97010.15
2023-03-07T21:26:40.609Z,97001.47
2023-03-07T21:29:56.656Z,97005.09
2023-03-07T21:33:12.881Z,96998.84
2023-03-07T21:36:30.089Z,97000.83
2023-03-07T21:39:46.908Z,96985.50
2023-03-07T21:43:02.957Z,96985.10
2023-03-07T21:46:21.437Z,96990.63
2023-03-07T21:49:40.568Z,96987.80
2023-03-07T21:52:56.942Z,96985.59
2023-03-07T21:56:17.875Z,96991.89
2023-03-07T21:59:34.226Z,96988.89
2023-03-07T22:02:51.097Z,96988.89
2023-03-07T22:06:12.660Z,96988.49
2023-03-07T22:09:29.206Z,96994.75
2023-03-07T22:12:48.410Z,96995.95
2023-03-07T22:16:08.590Z,96987.06
2023-03-07T22:19:25.027Z,96979.38
2023-03-07T22:22:41.315Z,96987.83
2023-03-07T22:25:57.724Z,96983.20
2023-03-07T22:29:14.501Z,96978.14
2023-03-07T22:32:32.104Z,96968.63
2023-03-07T22:35:48.824Z,96965.37
2023-03-07T22:39:08.050Z,96977.08
2023-03-07T22:42:24.358Z,96970.19
2023-03-07T22:45:40.542Z,96966.13
2023-03-07T22:48:59.066Z,96966.77
2023-03-07T22:52:15.675Z,96966.97
2023-03-07T22:55:33.359Z,96965.14
2023-03-07T22:58:49.731Z,96967.77
2023-03-07T23:02:05.905Z,96957.68
2023-03-07T23:05:22.529Z,96964.17
2023-03-07T23:08:38.730Z,96962.97
2023-03-07T23:11:55.095Z,96961.77
2023-03-07T23:15:12.108Z,96964.80
2023-03-07T23:18:28.350Z,96965.39
2023-03-07T23:21:45.485Z,96961.34
2023-03-07T23:25:01.618Z,96961.31
2023-03-07T23:28:18.030Z,96950.59
2023-03-07T23:31:37.049Z,96961.73
2023-03-07T23:34:53.119Z,96973.05
2023-03-07T23:38:10.108Z,96973.25
2023-03-07T23:41:26.367Z,96972.05
2023-03-07T23:44:42.579Z,96975.31
2023-03-07T23:47:59.715Z,96973.94
2023-03-07T23:51:17.346Z,96973.17
2023-03-07T23:54:34.130Z,96969.77
2023-03-07T23:57:51.625Z,96977.52
